sensor_id;sensor_type;location;lat;lon;timestamp;P1;durP1;ratioP1;P2;durP2;ratioP2
3953;SDS011;1991;48.682;9.030;2023-08-17T00:00:25;9.02;;;8.13;;
3953;SDS011;1991;48.682;9.030;2023-08-17T00:02:51;12.63;;;8.15;;
3953;SDS011;1991;48.682;9.030;2023-08-17T00:05:17;11.32;;;9.13;;
3953;SDS011;1991;48.682;9.030;2023-08-17T00:07:43;10.35;;;8.13;;
3953;SDS011;1991;48.682;9.030;2023-08-17T00:10:08;12.35;;;8.25;;
3953;SDS011;1991;48.682;9.030;2023-08-17T00:12:34;8.68;;;7.80;;
3953;SDS011;1991;48.682;9.030;2023-08-17T00:15:00;8.57;;;7.68;;
3953;SDS011;1991;48.682;9.030;2023-08-17T00:17:25;9.68;;;7.60;;
3953;SDS011;1991;48.682;9.030;2023-08-17T00:19:51;12.35;;;7.80;;
3953;SDS011;1991;48.682;9.030;2023-08-17T00:22:17;8.73;;;7.57;;
3953;SDS011;1991;48.682;9.030;2023-08-17T00:24:42;8.90;;;7.55;;
3953;SDS011;1991;48.682;9.030;2023-08-17T00:27:10;10.32;;;8.02;;
3953;SDS011;1991;48.682;9.030;2023-08-17T00:29:36;8.85;;;7.50;;
3953;SDS011;1991;48.682;9.030;2023-08-17T00:32:02;9.00;;;8.10;;
3953;SDS011;1991;48.682;9.030;2023-08-17T00:34:28;11.55;;;7.85;;
3953;SDS011;1991;48.682;9.030;2023-08-17T00:36:53;11.32;;;7.38;;
3953;SDS011;1991;48.682;9.030;2023-08-17T00:39:19;8.50;;;7.55;;
3953;SDS011;1991;48.682;9.030;2023-08-17T00:41:45;9.80;;;7.93;;
3953;SDS011;1991;48.682;9.030;2023-08-17T00:44:11;9.25;;;7.38;;
3953;SDS011;1991;48.682;9.030;2023-08-17T00:46:37;9.90;;;6.93;;
3953;SDS011;1991;48.682;9.030;2023-08-17T00:49:03;8.02;;;6.88;;
3953;SDS011;1991;48.682;9.030;2023-08-17T00:51:29;10.10;;;8.35;;
3953;SDS011;1991;48.682;9.030;2023-08-17T00:53:56;10.35;;;7.63;;
3953;SDS011;1991;48.682;9.030;2023-08-17T00:56:23;9.90;;;7.13;;
3953;SDS011;1991;48.682;9.030;2023-08-17T00:58:49;8.63;;;7.72;;
3953;SDS011;1991;48.682;9.030;2023-08-17T01:01:16;8.15;;;6.47;;
3953;SDS011;1991;48.682;9.030;2023-08-17T01:03:41;8.55;;;6.22;;
3953;SDS011;1991;48.682;9.030;2023-08-17T01:06:08;8.73;;;6.97;;
3953;SDS011;1991;48.682;9.030;2023-08-17T01:08:34;9.20;;;7.20;;
3953;SDS011;1991;48.682;9.030;2023-08-17T01:11:04;11.80;;;6.80;;
3953;SDS011;1991;48.682;9.030;2023-08-17T01:13:42;7.93;;;6.82;;
3953;SDS011;1991;48.682;9.030;2023-08-17T01:16:15;9.57;;;6.85;;
3953;SDS011;1991;48.682;9.030;2023-08-17T01:18:47;7.15;;;6.55;;
3953;SDS011;1991;48.682;9.030;2023-08-17T01:21:15;8.32;;;7.10;;
3953;SDS011;1991;48.682;9.030;2023-08-17T01:23:46;11.18;;;6.45;;
3953;SDS011;1991;48.682;9.030;2023-08-17T01:26:14;10.07;;;7.15;;
3953;SDS011;1991;48.682;9.030;2023-08-17T01:28:42;9.40;;;7.03;;
3953;SDS011;1991;48.682;9.030;2023-08-17T01:31:11;11.18;;;6.65;;
3953;SDS011;1991;48.682;9.030;2023-08-17T01:33:44;9.88;;;7.13;;
3953;SDS011;1991;48.682;9.030;2023-08-17T01:36:20;14.30;;;8.20;;
3953;SDS011;1991;48.682;9.030;2023-08-17T01:38:51;9.27;;;7.47;;
3953;SDS011;1991;48.682;9.030;2023-08-17T01:41:20;10.90;;;7.20;;
3953;SDS011;1991;48.682;9.030;2023-08-17T01:43:47;8.77;;;7.32;;
3953;SDS011;1991;48.682;9.030;2023-08-17T01:46:13;14.38;;;7.63;;
3953;SDS011;1991;48.682;9.030;2023-08-17T01:48:43;13.57;;;7.45;;
3953;SDS011;1991;48.682;9.030;2023-08-17T01:51:10;11.90;;;6.82;;
3953;SDS011;1991;48.682;9.030;2023-08-17T01:53:36;13.32;;;7.53;;
3953;SDS011;1991;48.682;9.030;2023-08-17T01:56:02;8.02;;;7.15;;
3953;SDS011;1991;48.682;9.030;2023-08-17T01:58:28;6.93;;;6.22;;
3953;SDS011;1991;48.682;9.030;2023-08-17T02:00:53;10.40;;;7.47;;
3953;SDS011;1991;48.682;9.030;2023-08-17T02:03:19;8.77;;;6.95;;
3953;SDS011;1991;48.682;9.030;2023-08-17T02:05:45;9.65;;;7.05;;
3953;SDS011;1991;48.682;9.030;2023-08-17T02:08:11;9.10;;;7.40;;
3953;SDS011;1991;48.682;9.030;2023-08-17T02:10:37;8.68;;;6.72;;
3953;SDS011;1991;48.682;9.030;2023-08-17T02:13:02;11.45;;;7.05;;
3953;SDS011;1991;48.682;9.030;2023-08-17T02:15:28;7.63;;;6.82;;
3953;SDS011;1991;48.682;9.030;2023-08-17T02:17:54;11.25;;;6.82;;
3953;SDS011;1991;48.682;9.030;2023-08-17T02:20:20;8.95;;;7.43;;
3953;SDS011;1991;48.682;9.030;2023-08-17T02:22:45;10.68;;;8.18;;
3953;SDS011;1991;48.682;9.030;2023-08-17T02:25:11;8.85;;;7.95;;
3953;SDS011;1991;48.682;9.030;2023-08-17T02:27:36;10.13;;;8.30;;
3953;SDS011;1991;48.682;9.030;2023-08-17T02:30:02;9.40;;;8.50;;
3953;SDS011;1991;48.682;9.030;2023-08-17T02:32:29;9.32;;;8.50;;
3953;SDS011;1991;48.682;9.030;2023-08-17T02:34:54;9.15;;;8.07;;
3953;SDS011;1991;48.682;9.030;2023-08-17T02:37:20;10.35;;;8.05;;
3953;SDS011;1991;48.682;9.030;2023-08-17T02:39:45;9.85;;;8.45;;
3953;SDS011;1991;48.682;9.030;2023-08-17T02:42:11;10.70;;;8.63;;
3953;SDS011;1991;48.682;9.030;2023-08-17T02:44:36;8.70;;;7.30;;
3953;SDS011;1991;48.682;9.030;2023-08-17T02:47:02;12.95;;;8.60;;
3953;SDS011;1991;48.682;9.030;2023-08-17T02:49:27;11.30;;;9.55;;
3953;SDS011;1991;48.682;9.030;2023-08-17T02:51:53;8.80;;;7.90;;
3953;SDS011;1991;48.682;9.030;2023-08-17T02:54:19;10.00;;;8.20;;
3953;SDS011;1991;48.682;9.030;2023-08-17T02:56:44;10.60;;;8.68;;
3953;SDS011;1991;48.682;9.030;2023-08-17T02:59:10;13.00;;;8.98;;
3953;SDS011;1991;48.682;9.030;2023-08-17T03:01:35;11.20;;;9.10;;
3953;SDS011;1991;48.682;9.030;2023-08-17T03:04:01;12.52;;;9.95;;
3953;SDS011;1991;48.682;9.030;2023-08-17T03:06:26;14.00;;;9.98;;
3953;SDS011;1991;48.682;9.030;2023-08-17T03:08:52;15.95;;;11.00;;
3953;SDS011;1991;48.682;9.030;2023-08-17T03:11:18;15.18;;;11.98;;
3953;SDS011;1991;48.682;9.030;2023-08-17T03:13:45;18.80;;;15.32;;
3953;SDS011;1991;48.682;9.030;2023-08-17T03:16:12;19.83;;;14.40;;
3953;SDS011;1991;48.682;9.030;2023-08-17T03:18:38;19.08;;;14.90;;
3953;SDS011;1991;48.682;9.030;2023-08-17T03:21:04;19.38;;;14.48;;
3953;SDS011;1991;48.682;9.030;2023-08-17T03:23:29;18.25;;;14.70;;
3953;SDS011;1991;48.682;9.030;2023-08-17T03:25:55;17.10;;;14.55;;
3953;SDS011;1991;48.682;9.030;2023-08-17T03:28:20;20.65;;;14.93;;
3953;SDS011;1991;48.682;9.030;2023-08-17T03:30:46;16.75;;;14.05;;
3953;SDS011;1991;48.682;9.030;2023-08-17T03:33:12;18.17;;;14.07;;
3953;SDS011;1991;48.682;9.030;2023-08-17T03:35:37;17.55;;;14.20;;
3953;SDS011;1991;48.682;9.030;2023-08-17T03:38:03;22.13;;;16.55;;
3953;SDS011;1991;48.682;9.030;2023-08-17T03:40:28;19.30;;;15.02;;
3953;SDS011;1991;48.682;9.030;2023-08-17T03:42:54;21.00;;;15.30;;
3953;SDS011;1991;48.682;9.030;2023-08-17T03:45:19;20.17;;;15.77;;
3953;SDS011;1991;48.682;9.030;2023-08-17T03:47:45;21.50;;;15.52;;
3953;SDS011;1991;48.682;9.030;2023-08-17T03:50:11;23.15;;;16.42;;
3953;SDS011;1991;48.682;9.030;2023-08-17T03:52:36;21.65;;;15.50;;
3953;SDS011;1991;48.682;9.030;2023-08-17T03:55:02;20.20;;;16.20;;
3953;SDS011;1991;48.682;9.030;2023-08-17T03:57:28;19.73;;;15.98;;
3953;SDS011;1991;48.682;9.030;2023-08-17T03:59:53;22.85;;;16.75;;
3953;SDS011;1991;48.682;9.030;2023-08-17T04:02:19;21.33;;;16.10;;
3953;SDS011;1991;48.682;9.030;2023-08-17T04:04:44;18.45;;;15.77;;
3953;SDS011;1991;48.682;9.030;2023-08-17T04:07:10;21.40;;;16.40;;
3953;SDS011;1991;48.682;9.030;2023-08-17T04:09:35;21.77;;;16.50;;
3953;SDS011;1991;48.682;9.030;2023-08-17T04:12:01;19.48;;;16.17;;
3953;SDS011;1991;48.682;9.030;2023-08-17T04:14:29;18.38;;;15.98;;
3953;SDS011;1991;48.682;9.030;2023-08-17T04:16:55;18.67;;;15.52;;
3953;SDS011;1991;48.682;9.030;2023-08-17T04:19:21;24.35;;;16.83;;
3953;SDS011;1991;48.682;9.030;2023-08-17T04:21:47;20.27;;;15.40;;
3953;SDS011;1991;48.682;9.030;2023-08-17T04:24:12;21.08;;;16.52;;
3953;SDS011;1991;48.682;9.030;2023-08-17T04:26:38;20.70;;;16.17;;
3953;SDS011;1991;48.682;9.030;2023-08-17T04:29:03;21.95;;;16.58;;
3953;SDS011;1991;48.682;9.030;2023-08-17T04:31:29;21.17;;;15.73;;
3953;SDS011;1991;48.682;9.030;2023-08-17T04:33:55;20.33;;;16.23;;
3953;SDS011;1991;48.682;9.030;2023-08-17T04:36:20;24.27;;;16.88;;
3953;SDS011;1991;48.682;9.030;2023-08-17T04:38:46;24.17;;;18.05;;
3953;SDS011;1991;48.682;9.030;2023-08-17T04:41:11;24.20;;;17.75;;
3953;SDS011;1991;48.682;9.030;2023-08-17T04:43:37;21.88;;;17.38;;
3953;SDS011;1991;48.682;9.030;2023-08-17T04:46:02;24.10;;;17.77;;
3953;SDS011;1991;48.682;9.030;2023-08-17T04:48:28;23.45;;;17.73;;
3953;SDS011;1991;48.682;9.030;2023-08-17T04:50:53;19.77;;;17.30;;
3953;SDS011;1991;48.682;9.030;2023-08-17T04:53:19;22.27;;;17.50;;
3953;SDS011;1991;48.682;9.030;2023-08-17T04:55:45;23.05;;;18.15;;
3953;SDS011;1991;48.682;9.030;2023-08-17T04:58:10;21.45;;;17.90;;
3953;SDS011;1991;48.682;9.030;2023-08-17T05:00:36;21.55;;;17.42;;
3953;SDS011;1991;48.682;9.030;2023-08-17T05:03:02;22.35;;;17.85;;
3953;SDS011;1991;48.682;9.030;2023-08-17T05:05:28;20.85;;;16.88;;
3953;SDS011;1991;48.682;9.030;2023-08-17T05:07:54;23.20;;;17.33;;
3953;SDS011;1991;48.682;9.030;2023-08-17T05:10:19;22.30;;;16.77;;
3953;SDS011;1991;48.682;9.030;2023-08-17T05:12:45;24.88;;;18.35;;
3953;SDS011;1991;48.682;9.030;2023-08-17T05:15:11;21.85;;;17.95;;
3953;SDS011;1991;48.682;9.030;2023-08-17T05:17:37;41.33;;;18.92;;
3953;SDS011;1991;48.682;9.030;2023-08-17T05:20:03;23.70;;;18.08;;
3953;SDS011;1991;48.682;9.030;2023-08-17T05:22:29;20.83;;;18.48;;
3953;SDS011;1991;48.682;9.030;2023-08-17T05:24:55;19.27;;;16.60;;
3953;SDS011;1991;48.682;9.030;2023-08-17T05:27:20;23.92;;;17.40;;
3953;SDS011;1991;48.682;9.030;2023-08-17T05:29:46;22.17;;;18.67;;
3953;SDS011;1991;48.682;9.030;2023-08-17T05:32:12;21.75;;;16.95;;
3953;SDS011;1991;48.682;9.030;2023-08-17T05:34:37;22.45;;;17.85;;
3953;SDS011;1991;48.682;9.030;2023-08-17T05:37:03;25.02;;;18.13;;
3953;SDS011;1991;48.682;9.030;2023-08-17T05:39:29;21.65;;;18.35;;
3953;SDS011;1991;48.682;9.030;2023-08-17T05:41:54;26.25;;;19.13;;
3953;SDS011;1991;48.682;9.030;2023-08-17T05:44:20;25.73;;;19.45;;
3953;SDS011;1991;48.682;9.030;2023-08-17T05:46:45;21.58;;;17.48;;
3953;SDS011;1991;48.682;9.030;2023-08-17T05:49:11;24.73;;;18.90;;
3953;SDS011;1991;48.682;9.030;2023-08-17T05:51:36;21.25;;;17.85;;
3953;SDS011;1991;48.682;9.030;2023-08-17T05:54:02;22.67;;;18.88;;
3953;SDS011;1991;48.682;9.030;2023-08-17T05:56:28;25.48;;;19.60;;
3953;SDS011;1991;48.682;9.030;2023-08-17T05:58:54;24.10;;;19.38;;
3953;SDS011;1991;48.682;9.030;2023-08-17T06:01:19;30.92;;;19.67;;
3953;SDS011;1991;48.682;9.030;2023-08-17T06:03:45;439.98;;;53.22;;
3953;SDS011;1991;48.682;9.030;2023-08-17T06:06:11;1584.78;;;225.70;;
3953;SDS011;1991;48.682;9.030;2023-08-17T06:08:36;885.40;;;212.40;;
3953;SDS011;1991;48.682;9.030;2023-08-17T06:11:02;606.28;;;173.32;;
3953;SDS011;1991;48.682;9.030;2023-08-17T06:13:27;72.70;;;31.55;;
3953;SDS011;1991;48.682;9.030;2023-08-17T06:15:53;46.05;;;26.25;;
3953;SDS011;1991;48.682;9.030;2023-08-17T06:18:20;39.00;;;26.55;;
3953;SDS011;1991;48.682;9.030;2023-08-17T06:20:46;90.45;;;41.47;;
3953;SDS011;1991;48.682;9.030;2023-08-17T06:23:13;138.82;;;54.50;;
3953;SDS011;1991;48.682;9.030;2023-08-17T06:25:38;215.25;;;82.90;;
3953;SDS011;1991;48.682;9.030;2023-08-17T06:28:05;40.47;;;27.80;;
3953;SDS011;1991;48.682;9.030;2023-08-17T06:30:31;26.75;;;21.63;;
3953;SDS011;1991;48.682;9.030;2023-08-17T06:32:56;22.73;;;18.33;;
3953;SDS011;1991;48.682;9.030;2023-08-17T06:35:22;21.33;;;17.30;;
3953;SDS011;1991;48.682;9.030;2023-08-17T06:37:47;22.90;;;18.90;;
3953;SDS011;1991;48.682;9.030;2023-08-17T06:40:13;22.00;;;17.73;;
3953;SDS011;1991;48.682;9.030;2023-08-17T06:42:38;19.25;;;17.23;;
3953;SDS011;1991;48.682;9.030;2023-08-17T06:45:05;18.52;;;16.55;;
3953;SDS011;1991;48.682;9.030;2023-08-17T06:47:31;19.95;;;16.05;;
3953;SDS011;1991;48.682;9.030;2023-08-17T06:49:57;19.77;;;15.75;;
3953;SDS011;1991;48.682;9.030;2023-08-17T06:52:22;19.42;;;16.00;;
3953;SDS011;1991;48.682;9.030;2023-08-17T06:54:49;17.98;;;16.08;;
3953;SDS011;1991;48.682;9.030;2023-08-17T06:57:15;16.30;;;14.60;;
3953;SDS011;1991;48.682;9.030;2023-08-17T06:59:40;17.98;;;14.13;;
3953;SDS011;1991;48.682;9.030;2023-08-17T07:02:06;16.50;;;14.63;;
3953;SDS011;1991;48.682;9.030;2023-08-17T07:04:32;21.52;;;14.85;;
3953;SDS011;1991;48.682;9.030;2023-08-17T07:06:57;16.70;;;14.05;;
3953;SDS011;1991;48.682;9.030;2023-08-17T07:09:23;16.35;;;14.68;;
3953;SDS011;1991;48.682;9.030;2023-08-17T07:11:48;16.70;;;14.52;;
3953;SDS011;1991;48.682;9.030;2023-08-17T07:14:14;15.68;;;14.02;;
3953;SDS011;1991;48.682;9.030;2023-08-17T07:16:40;15.48;;;13.80;;
3953;SDS011;1991;48.682;9.030;2023-08-17T07:19:06;12.90;;;11.60;;
3953;SDS011;1991;48.682;9.030;2023-08-17T07:21:31;13.13;;;11.73;;
3953;SDS011;1991;48.682;9.030;2023-08-17T07:23:57;13.07;;;11.80;;
3953;SDS011;1991;48.682;9.030;2023-08-17T07:26:23;13.07;;;11.57;;
3953;SDS011;1991;48.682;9.030;2023-08-17T07:28:48;11.65;;;10.55;;
3953;SDS011;1991;48.682;9.030;2023-08-17T07:31:14;13.00;;;11.68;;
3953;SDS011;1991;48.682;9.030;2023-08-17T07:33:40;11.40;;;10.18;;
3953;SDS011;1991;48.682;9.030;2023-08-17T07:36:06;11.45;;;10.35;;
3953;SDS011;1991;48.682;9.030;2023-08-17T07:38:32;11.65;;;10.55;;
3953;SDS011;1991;48.682;9.030;2023-08-17T07:40:58;11.98;;;10.75;;
3953;SDS011;1991;48.682;9.030;2023-08-17T07:43:23;10.50;;;9.50;;
3953;SDS011;1991;48.682;9.030;2023-08-17T07:45:55;10.90;;;9.55;;
3953;SDS011;1991;48.682;9.030;2023-08-17T07:48:21;11.05;;;9.98;;
3953;SDS011;1991;48.682;9.030;2023-08-17T07:50:51;11.07;;;9.88;;
3953;SDS011;1991;48.682;9.030;2023-08-17T07:53:18;12.48;;;11.18;;
3953;SDS011;1991;48.682;9.030;2023-08-17T07:55:44;11.65;;;10.45;;
3953;SDS011;1991;48.682;9.030;2023-08-17T07:58:09;10.23;;;9.23;;
3953;SDS011;1991;48.682;9.030;2023-08-17T08:00:35;8.88;;;7.97;;
3953;SDS011;1991;48.682;9.030;2023-08-17T08:03:01;10.65;;;9.27;;
3953;SDS011;1991;48.682;9.030;2023-08-17T08:05:26;10.75;;;8.30;;
3953;SDS011;1991;48.682;9.030;2023-08-17T08:07:52;8.25;;;7.47;;
3953;SDS011;1991;48.682;9.030;2023-08-17T08:10:18;7.57;;;6.97;;
3953;SDS011;1991;48.682;9.030;2023-08-17T08:12:44;7.85;;;7.15;;
3953;SDS011;1991;48.682;9.030;2023-08-17T08:15:09;7.47;;;6.78;;
3953;SDS011;1991;48.682;9.030;2023-08-17T08:17:35;7.75;;;6.40;;
3953;SDS011;1991;48.682;9.030;2023-08-17T08:20:02;8.68;;;5.90;;
3953;SDS011;1991;48.682;9.030;2023-08-17T08:22:28;6.70;;;6.00;;
3953;SDS011;1991;48.682;9.030;2023-08-17T08:24:53;6.25;;;5.63;;
3953;SDS011;1991;48.682;9.030;2023-08-17T08:27:19;7.95;;;5.70;;
3953;SDS011;1991;48.682;9.030;2023-08-17T08:29:44;5.78;;;5.28;;
3953;SDS011;1991;48.682;9.030;2023-08-17T08:32:10;5.75;;;5.20;;
3953;SDS011;1991;48.682;9.030;2023-08-17T08:34:36;6.40;;;5.80;;
3953;SDS011;1991;48.682;9.030;2023-08-17T08:37:01;7.40;;;6.20;;
3953;SDS011;1991;48.682;9.030;2023-08-17T08:39:27;4.72;;;4.32;;
3953;SDS011;1991;48.682;9.030;2023-08-17T08:41:53;6.70;;;4.65;;
3953;SDS011;1991;48.682;9.030;2023-08-17T08:44:18;5.00;;;4.60;;
3953;SDS011;1991;48.682;9.030;2023-08-17T08:46:45;6.60;;;5.15;;
3953;SDS011;1991;48.682;9.030;2023-08-17T08:49:11;6.30;;;5.45;;
3953;SDS011;1991;48.682;9.030;2023-08-17T08:51:43;5.30;;;4.80;;
3953;SDS011;1991;48.682;9.030;2023-08-17T08:54:14;5.57;;;4.90;;
3953;SDS011;1991;48.682;9.030;2023-08-17T08:56:45;4.45;;;4.05;;
3953;SDS011;1991;48.682;9.030;2023-08-17T08:59:13;4.93;;;4.53;;
3953;SDS011;1991;48.682;9.030;2023-08-17T09:01:39;6.13;;;5.53;;
3953;SDS011;1991;48.682;9.030;2023-08-17T09:04:05;6.38;;;5.78;;
3953;SDS011;1991;48.682;9.030;2023-08-17T09:06:31;5.72;;;5.22;;
3953;SDS011;1991;48.682;9.030;2023-08-17T09:08:57;5.53;;;5.00;;
3953;SDS011;1991;48.682;9.030;2023-08-17T09:11:24;8.27;;;5.78;;
3953;SDS011;1991;48.682;9.030;2023-08-17T09:13:50;5.97;;;5.03;;
3953;SDS011;1991;48.682;9.030;2023-08-17T09:16:17;5.20;;;4.68;;
3953;SDS011;1991;48.682;9.030;2023-08-17T09:18:43;5.72;;;4.13;;
3953;SDS011;1991;48.682;9.030;2023-08-17T09:21:09;5.57;;;4.78;;
3953;SDS011;1991;48.682;9.030;2023-08-17T09:23:49;5.13;;;4.63;;
3953;SDS011;1991;48.682;9.030;2023-08-17T09:26:22;5.00;;;4.50;;
3953;SDS011;1991;48.682;9.030;2023-08-17T09:28:51;5.40;;;4.90;;
3953;SDS011;1991;48.682;9.030;2023-08-17T09:31:23;4.65;;;4.20;;
3953;SDS011;1991;48.682;9.030;2023-08-17T09:33:52;4.60;;;4.20;;
3953;SDS011;1991;48.682;9.030;2023-08-17T09:36:21;4.38;;;3.97;;
3953;SDS011;1991;48.682;9.030;2023-08-17T09:38:48;3.55;;;3.35;;
3953;SDS011;1991;48.682;9.030;2023-08-17T09:41:17;4.40;;;4.10;;
3953;SDS011;1991;48.682;9.030;2023-08-17T09:43:44;4.55;;;4.15;;
3953;SDS011;1991;48.682;9.030;2023-08-17T09:46:11;3.67;;;3.38;;
3953;SDS011;1991;48.682;9.030;2023-08-17T09:48:36;3.90;;;3.53;;
3953;SDS011;1991;48.682;9.030;2023-08-17T09:51:02;6.05;;;4.10;;
3953;SDS011;1991;48.682;9.030;2023-08-17T09:53:28;6.97;;;3.65;;
3953;SDS011;1991;48.682;9.030;2023-08-17T09:55:54;4.00;;;3.70;;
3953;SDS011;1991;48.682;9.030;2023-08-17T09:58:20;3.75;;;3.30;;
3953;SDS011;1991;48.682;9.030;2023-08-17T10:00:50;3.55;;;3.33;;
3953;SDS011;1991;48.682;9.030;2023-08-17T10:03:16;5.13;;;3.58;;
3953;SDS011;1991;48.682;9.030;2023-08-17T10:05:44;3.90;;;3.55;;
3953;SDS011;1991;48.682;9.030;2023-08-17T10:08:13;4.38;;;3.70;;
3953;SDS011;1991;48.682;9.030;2023-08-17T10:10:44;4.18;;;3.50;;
3953;SDS011;1991;48.682;9.030;2023-08-17T10:13:11;4.50;;;4.10;;
3953;SDS011;1991;48.682;9.030;2023-08-17T10:15:55;3.60;;;3.30;;
3953;SDS011;1991;48.682;9.030;2023-08-17T10:18:37;4.07;;;3.75;;
3953;SDS011;1991;48.682;9.030;2023-08-17T10:21:23;4.97;;;3.78;;
3953;SDS011;1991;48.682;9.030;2023-08-17T10:24:01;3.92;;;3.63;;
3953;SDS011;1991;48.682;9.030;2023-08-17T10:26:28;4.53;;;3.85;;
3953;SDS011;1991;48.682;9.030;2023-08-17T10:28:54;6.20;;;3.90;;
3953;SDS011;1991;48.682;9.030;2023-08-17T10:31:23;5.47;;;4.30;;
3953;SDS011;1991;48.682;9.030;2023-08-17T10:33:50;5.53;;;4.40;;
3953;SDS011;1991;48.682;9.030;2023-08-17T10:36:16;5.13;;;4.20;;
3953;SDS011;1991;48.682;9.030;2023-08-17T10:38:42;3.67;;;3.38;;
3953;SDS011;1991;48.682;9.030;2023-08-17T10:41:09;4.80;;;3.78;;
3953;SDS011;1991;48.682;9.030;2023-08-17T10:43:52;4.40;;;4.03;;
3953;SDS011;1991;48.682;9.030;2023-08-17T10:46:18;4.10;;;3.80;;
3953;SDS011;1991;48.682;9.030;2023-08-17T10:48:44;4.72;;;3.90;;
3953;SDS011;1991;48.682;9.030;2023-08-17T10:51:10;4.40;;;4.00;;
3953;SDS011;1991;48.682;9.030;2023-08-17T10:53:38;6.38;;;3.65;;
3953;SDS011;1991;48.682;9.030;2023-08-17T10:56:10;5.30;;;4.80;;
3953;SDS011;1991;48.682;9.030;2023-08-17T10:58:38;4.45;;;3.88;;
3953;SDS011;1991;48.682;9.030;2023-08-17T11:01:03;4.18;;;3.83;;
3953;SDS011;1991;48.682;9.030;2023-08-17T11:03:30;11.80;;;4.10;;
3953;SDS011;1991;48.682;9.030;2023-08-17T11:05:56;5.28;;;4.07;;
3953;SDS011;1991;48.682;9.030;2023-08-17T11:08:26;4.40;;;4.00;;
3953;SDS011;1991;48.682;9.030;2023-08-17T11:11:05;4.15;;;3.85;;
3953;SDS011;1991;48.682;9.030;2023-08-17T11:13:36;4.45;;;3.97;;
3953;SDS011;1991;48.682;9.030;2023-08-17T11:16:03;4.10;;;3.70;;
3953;SDS011;1991;48.682;9.030;2023-08-17T11:18:30;4.47;;;3.90;;
3953;SDS011;1991;48.682;9.030;2023-08-17T11:20:57;4.00;;;3.70;;
3953;SDS011;1991;48.682;9.030;2023-08-17T11:23:23;5.50;;;4.10;;
3953;SDS011;1991;48.682;9.030;2023-08-17T11:25:49;4.18;;;3.88;;
3953;SDS011;1991;48.682;9.030;2023-08-17T11:28:17;5.00;;;3.80;;
3953;SDS011;1991;48.682;9.030;2023-08-17T11:30:43;4.97;;;3.72;;
3953;SDS011;1991;48.682;9.030;2023-08-17T11:33:09;4.43;;;3.63;;
3953;SDS011;1991;48.682;9.030;2023-08-17T11:35:38;11.40;;;4.55;;
3953;SDS011;1991;48.682;9.030;2023-08-17T11:38:04;4.50;;;4.10;;
3953;SDS011;1991;48.682;9.030;2023-08-17T11:40:31;4.50;;;3.83;;
3953;SDS011;1991;48.682;9.030;2023-08-17T11:42:57;4.40;;;3.92;;
3953;SDS011;1991;48.682;9.030;2023-08-17T11:45:23;4.35;;;3.95;;
3953;SDS011;1991;48.682;9.030;2023-08-17T11:47:49;4.28;;;3.97;;
3953;SDS011;1991;48.682;9.030;2023-08-17T11:50:14;4.10;;;3.80;;
3953;SDS011;1991;48.682;9.030;2023-08-17T11:52:41;4.60;;;3.65;;
3953;SDS011;1991;48.682;9.030;2023-08-17T11:55:07;4.30;;;3.90;;
3953;SDS011;1991;48.682;9.030;2023-08-17T11:57:37;5.22;;;3.63;;
3953;SDS011;1991;48.682;9.030;2023-08-17T12:00:03;4.18;;;3.85;;
3953;SDS011;1991;48.682;9.030;2023-08-17T12:02:35;4.32;;;3.78;;
3953;SDS011;1991;48.682;9.030;2023-08-17T12:05:03;5.82;;;4.53;;
3953;SDS011;1991;48.682;9.030;2023-08-17T12:07:31;5.20;;;4.70;;
3953;SDS011;1991;48.682;9.030;2023-08-17T12:09:57;6.93;;;4.30;;
3953;SDS011;1991;48.682;9.030;2023-08-17T12:12:23;5.07;;;4.57;;
3953;SDS011;1991;48.682;9.030;2023-08-17T12:14:49;6.43;;;4.18;;
3953;SDS011;1991;48.682;9.030;2023-08-17T12:17:15;5.20;;;4.68;;
3953;SDS011;1991;48.682;9.030;2023-08-17T12:19:42;5.15;;;4.65;;
3953;SDS011;1991;48.682;9.030;2023-08-17T12:22:08;5.95;;;4.32;;
3953;SDS011;1991;48.682;9.030;2023-08-17T12:24:33;5.82;;;4.50;;
3953;SDS011;1991;48.682;9.030;2023-08-17T12:27:02;6.68;;;4.63;;
3953;SDS011;1991;48.682;9.030;2023-08-17T12:29:28;5.20;;;4.70;;
3953;SDS011;1991;48.682;9.030;2023-08-17T12:31:56;6.15;;;4.60;;
3953;SDS011;1991;48.682;9.030;2023-08-17T12:34:22;6.30;;;4.22;;
3953;SDS011;1991;48.682;9.030;2023-08-17T12:36:48;7.10;;;4.40;;
3953;SDS011;1991;48.682;9.030;2023-08-17T12:39:14;5.20;;;4.70;;
3953;SDS011;1991;48.682;9.030;2023-08-17T12:41:40;7.30;;;4.45;;
3953;SDS011;1991;48.682;9.030;2023-08-17T12:44:06;6.72;;;4.70;;
3953;SDS011;1991;48.682;9.030;2023-08-17T12:46:34;6.38;;;4.82;;
3953;SDS011;1991;48.682;9.030;2023-08-17T12:49:00;5.18;;;4.40;;
3953;SDS011;1991;48.682;9.030;2023-08-17T12:51:25;5.25;;;4.35;;
3953;SDS011;1991;48.682;9.030;2023-08-17T12:53:51;5.22;;;4.75;;
3953;SDS011;1991;48.682;9.030;2023-08-17T12:56:17;6.78;;;5.68;;
3953;SDS011;1991;48.682;9.030;2023-08-17T12:58:42;6.90;;;5.75;;
3953;SDS011;1991;48.682;9.030;2023-08-17T13:01:08;6.65;;;5.05;;
3953;SDS011;1991;48.682;9.030;2023-08-17T13:03:33;7.20;;;4.70;;
3953;SDS011;1991;48.682;9.030;2023-08-17T13:05:59;8.43;;;5.20;;
3953;SDS011;1991;48.682;9.030;2023-08-17T13:08:25;6.55;;;4.90;;
3953;SDS011;1991;48.682;9.030;2023-08-17T13:10:50;5.32;;;4.78;;
3953;SDS011;1991;48.682;9.030;2023-08-17T13:13:16;6.63;;;4.57;;
3953;SDS011;1991;48.682;9.030;2023-08-17T13:15:41;5.28;;;4.53;;
3953;SDS011;1991;48.682;9.030;2023-08-17T13:18:07;8.60;;;4.60;;
3953;SDS011;1991;48.682;9.030;2023-08-17T13:20:33;8.18;;;4.15;;
3953;SDS011;1991;48.682;9.030;2023-08-17T13:22:58;4.90;;;4.43;;
3953;SDS011;1991;48.682;9.030;2023-08-17T13:25:24;7.00;;;4.40;;
3953;SDS011;1991;48.682;9.030;2023-08-17T13:27:50;7.57;;;4.60;;
3953;SDS011;1991;48.682;9.030;2023-08-17T13:30:16;6.00;;;4.75;;
3953;SDS011;1991;48.682;9.030;2023-08-17T13:32:41;7.32;;;4.60;;
3953;SDS011;1991;48.682;9.030;2023-08-17T13:35:07;6.22;;;5.32;;
3953;SDS011;1991;48.682;9.030;2023-08-17T13:37:33;5.78;;;4.88;;
3953;SDS011;1991;48.682;9.030;2023-08-17T13:40:01;8.95;;;5.38;;
3953;SDS011;1991;48.682;9.030;2023-08-17T13:42:27;5.85;;;5.35;;
3953;SDS011;1991;48.682;9.030;2023-08-17T13:44:52;9.40;;;5.45;;
3953;SDS011;1991;48.682;9.030;2023-08-17T13:47:18;6.10;;;5.45;;
3953;SDS011;1991;48.682;9.030;2023-08-17T13:49:44;9.10;;;6.13;;
3953;SDS011;1991;48.682;9.030;2023-08-17T13:52:10;7.45;;;6.28;;
3953;SDS011;1991;48.682;9.030;2023-08-17T13:54:36;9.10;;;6.30;;
3953;SDS011;1991;48.682;9.030;2023-08-17T13:57:01;12.70;;;7.28;;
3953;SDS011;1991;48.682;9.030;2023-08-17T13:59:27;9.43;;;6.47;;
3953;SDS011;1991;48.682;9.030;2023-08-17T14:01:54;8.23;;;6.90;;
3953;SDS011;1991;48.682;9.030;2023-08-17T14:04:21;8.35;;;6.50;;
3953;SDS011;1991;48.682;9.030;2023-08-17T14:06:46;9.05;;;6.88;;
3953;SDS011;1991;48.682;9.030;2023-08-17T14:09:13;8.98;;;6.55;;
3953;SDS011;1991;48.682;9.030;2023-08-17T14:11:39;10.10;;;7.30;;
3953;SDS011;1991;48.682;9.030;2023-08-17T14:14:04;11.52;;;7.32;;
3953;SDS011;1991;48.682;9.030;2023-08-17T14:16:30;7.60;;;6.47;;
3953;SDS011;1991;48.682;9.030;2023-08-17T14:18:56;9.68;;;7.13;;
3953;SDS011;1991;48.682;9.030;2023-08-17T14:21:21;8.48;;;7.43;;
3953;SDS011;1991;48.682;9.030;2023-08-17T14:23:47;9.48;;;7.40;;
3953;SDS011;1991;48.682;9.030;2023-08-17T14:26:13;9.82;;;7.10;;
3953;SDS011;1991;48.682;9.030;2023-08-17T14:28:40;12.02;;;8.20;;
3953;SDS011;1991;48.682;9.030;2023-08-17T14:31:05;9.52;;;8.25;;
3953;SDS011;1991;48.682;9.030;2023-08-17T14:33:31;11.43;;;8.50;;
3953;SDS011;1991;48.682;9.030;2023-08-17T14:35:56;10.90;;;9.02;;
3953;SDS011;1991;48.682;9.030;2023-08-17T14:38:22;12.10;;;8.75;;
3953;SDS011;1991;48.682;9.030;2023-08-17T14:40:48;12.30;;;8.65;;
3953;SDS011;1991;48.682;9.030;2023-08-17T14:43:14;10.77;;;8.90;;
3953;SDS011;1991;48.682;9.030;2023-08-17T14:45:40;8.90;;;7.55;;
3953;SDS011;1991;48.682;9.030;2023-08-17T14:48:09;8.35;;;7.53;;
3953;SDS011;1991;48.682;9.030;2023-08-17T14:50:35;10.18;;;7.65;;
3953;SDS011;1991;48.682;9.030;2023-08-17T14:53:02;9.27;;;8.40;;
3953;SDS011;1991;48.682;9.030;2023-08-17T14:55:28;10.10;;;7.05;;
3953;SDS011;1991;48.682;9.030;2023-08-17T14:57:54;9.60;;;7.60;;
3953;SDS011;1991;48.682;9.030;2023-08-17T15:00:20;9.18;;;7.85;;